sensor_id;sensor_type;location;lat;lon;timestamp;temperature;humidity
15099;DHT22;33900;53.640;9.942;2023-05-23T00:00:21;19.80;87.10
15099;DHT22;33900;53.640;9.942;2023-05-23T00:02:46;19.80;87.20
15099;DHT22;33900;53.640;9.942;2023-05-23T00:05:13;19.80;87.40
15099;DHT22;33900;53.640;9.942;2023-05-23T00:07:39;19.90;87.50
15099;DHT22;33900;53.640;9.942;2023-05-23T00:10:05;19.90;87.60
15099;DHT22;33900;53.640;9.942;2023-05-23T00:12:31;19.90;87.60
15099;DHT22;33900;53.640;9.942;2023-05-23T00:14:58;19.90;87.70
15099;DHT22;33900;53.640;9.942;2023-05-23T00:17:23;19.90;87.70
15099;DHT22;33900;53.640;9.942;2023-05-23T00:19:49;19.90;87.80
15099;DHT22;33900;53.640;9.942;2023-05-23T00:22:15;19.90;87.90
15099;DHT22;33900;53.640;9.942;2023-05-23T00:24:42;19.90;87.90
15099;DHT22;33900;53.640;9.942;2023-05-23T00:27:08;19.90;88.00
15099;DHT22;33900;53.640;9.942;2023-05-23T00:29:34;20.00;88.10
15099;DHT22;33900;53.640;9.942;2023-05-23T00:31:59;19.90;88.10
15099;DHT22;33900;53.640;9.942;2023-05-23T00:34:25;20.00;88.10
15099;DHT22;33900;53.640;9.942;2023-05-23T00:36:50;20.00;88.00
15099;DHT22;33900;53.640;9.942;2023-05-23T00:39:16;20.00;88.00
15099;DHT22;33900;53.640;9.942;2023-05-23T00:41:47;20.00;88.00
15099;DHT22;33900;53.640;9.942;2023-05-23T00:44:13;19.90;87.90
15099;DHT22;33900;53.640;9.942;2023-05-23T00:46:38;20.00;87.90
15099;DHT22;33900;53.640;9.942;2023-05-23T00:49:05;19.90;87.70
15099;DHT22;33900;53.640;9.942;2023-05-23T00:51:30;19.90;87.60
15099;DHT22;33900;53.640;9.942;2023-05-23T00:53:56;19.90;87.60
15099;DHT22;33900;53.640;9.942;2023-05-23T00:56:25;19.90;87.50
15099;DHT22;33900;53.640;9.942;2023-05-23T00:58:52;19.90;87.50
15099;DHT22;33900;53.640;9.942;2023-05-23T01:01:18;19.90;87.50
15099;DHT22;33900;53.640;9.942;2023-05-23T01:03:44;19.90;87.40
15099;DHT22;33900;53.640;9.942;2023-05-23T01:06:12;19.90;87.40
15099;DHT22;33900;53.640;9.942;2023-05-23T01:08:39;19.80;87.40
15099;DHT22;33900;53.640;9.942;2023-05-23T01:11:11;19.80;87.30
15099;DHT22;33900;53.640;9.942;2023-05-23T01:13:40;19.80;87.30
15099;DHT22;33900;53.640;9.942;2023-05-23T01:16:17;19.80;87.20
15099;DHT22;33900;53.640;9.942;2023-05-23T01:19:03;19.80;87.20
15099;DHT22;33900;53.640;9.942;2023-05-23T01:21:33;19.70;87.10
15099;DHT22;33900;53.640;9.942;2023-05-23T01:26:53;19.70;87.10
15099;DHT22;33900;53.640;9.942;2023-05-23T01:29:26;19.70;87.00
15099;DHT22;33900;53.640;9.942;2023-05-23T01:31:53;19.70;87.80
15099;DHT22;33900;53.640;9.942;2023-05-23T01:34:20;19.70;87.00
15099;DHT22;33900;53.640;9.942;2023-05-23T01:36:48;19.70;87.00
15099;DHT22;33900;53.640;9.942;2023-05-23T01:39:14;19.70;87.00
15099;DHT22;33900;53.640;9.942;2023-05-23T01:41:40;19.60;87.70
15099;DHT22;33900;53.640;9.942;2023-05-23T01:44:05;19.60;86.90
15099;DHT22;33900;53.640;9.942;2023-05-23T01:46:31;19.60;86.80
15099;DHT22;33900;53.640;9.942;2023-05-23T01:48:58;19.60;86.80
15099;DHT22;33900;53.640;9.942;2023-05-23T01:51:24;19.60;86.80
15099;DHT22;33900;53.640;9.942;2023-05-23T01:53:52;19.60;86.80
15099;DHT22;33900;53.640;9.942;2023-05-23T01:56:18;19.60;86.80
15099;DHT22;33900;53.640;9.942;2023-05-23T01:58:44;19.60;86.90
15099;DHT22;33900;53.640;9.942;2023-05-23T02:01:10;19.60;87.00
15099;DHT22;33900;53.640;9.942;2023-05-23T02:03:36;19.60;87.20
15099;DHT22;33900;53.640;9.942;2023-05-23T02:06:01;19.60;87.30
15099;DHT22;33900;53.640;9.942;2023-05-23T02:08:27;19.50;87.40
15099;DHT22;33900;53.640;9.942;2023-05-23T02:10:52;19.50;87.50
15099;DHT22;33900;53.640;9.942;2023-05-23T02:13:19;19.50;87.60
15099;DHT22;33900;53.640;9.942;2023-05-23T02:15:44;19.50;87.70
15099;DHT22;33900;53.640;9.942;2023-05-23T02:21:46;19.40;87.90
15099;DHT22;33900;53.640;9.942;2023-05-23T02:24:12;19.30;87.90
15099;DHT22;33900;53.640;9.942;2023-05-23T02:26:37;19.30;87.90
15099;DHT22;33900;53.640;9.942;2023-05-23T02:29:03;19.30;88.00
15099;DHT22;33900;53.640;9.942;2023-05-23T02:31:29;19.30;88.20
15099;DHT22;33900;53.640;9.942;2023-05-23T02:33:54;19.20;88.30
15099;DHT22;33900;53.640;9.942;2023-05-23T02:36:20;19.20;88.30
15099;DHT22;33900;53.640;9.942;2023-05-23T02:38:46;19.10;88.50
15099;DHT22;33900;53.640;9.942;2023-05-23T02:41:12;19.10;88.50
15099;DHT22;33900;53.640;9.942;2023-05-23T02:43:38;19.00;88.40
15099;DHT22;33900;53.640;9.942;2023-05-23T02:46:04;19.00;88.60
15099;DHT22;33900;53.640;9.942;2023-05-23T02:48:31;18.90;88.40
15099;DHT22;33900;53.640;9.942;2023-05-23T02:50:57;18.90;88.40
15099;DHT22;33900;53.640;9.942;2023-05-23T02:53:23;18.80;88.30
15099;DHT22;33900;53.640;9.942;2023-05-23T02:55:48;18.80;88.30
15099;DHT22;33900;53.640;9.942;2023-05-23T02:58:14;18.80;88.40
15099;DHT22;33900;53.640;9.942;2023-05-23T03:00:40;18.80;88.40
15099;DHT22;33900;53.640;9.942;2023-05-23T03:03:08;18.80;88.30
15099;DHT22;33900;53.640;9.942;2023-05-23T03:05:34;18.80;88.30
15099;DHT22;33900;53.640;9.942;2023-05-23T03:08:01;18.80;88.40
15099;DHT22;33900;53.640;9.942;2023-05-23T03:10:26;18.70;88.50
15099;DHT22;33900;53.640;9.942;2023-05-23T03:12:52;18.70;88.60
15099;DHT22;33900;53.640;9.942;2023-05-23T03:15:17;18.70;88.60
15099;DHT22;33900;53.640;9.942;2023-05-23T03:17:44;18.70;88.70
15099;DHT22;33900;53.640;9.942;2023-05-23T03:20:09;18.60;88.60
15099;DHT22;33900;53.640;9.942;2023-05-23T03:22:37;18.60;88.70
15099;DHT22;33900;53.640;9.942;2023-05-23T03:25:03;18.60;88.60
15099;DHT22;33900;53.640;9.942;2023-05-23T03:27:29;18.60;88.60
15099;DHT22;33900;53.640;9.942;2023-05-23T03:29:55;18.60;88.60
15099;DHT22;33900;53.640;9.942;2023-05-23T03:32:20;18.60;88.70
15099;DHT22;33900;53.640;9.942;2023-05-23T03:34:46;18.50;88.60
15099;DHT22;33900;53.640;9.942;2023-05-23T03:37:11;18.50;88.70
15099;DHT22;33900;53.640;9.942;2023-05-23T03:39:37;18.50;88.70
15099;DHT22;33900;53.640;9.942;2023-05-23T03:42:02;18.50;88.90
15099;DHT22;33900;53.640;9.942;2023-05-23T03:44:28;18.50;88.90
15099;DHT22;33900;53.640;9.942;2023-05-23T03:46:54;18.50;88.90
15099;DHT22;33900;53.640;9.942;2023-05-23T03:49:20;18.40;88.70
15099;DHT22;33900;53.640;9.942;2023-05-23T03:51:45;18.40;88.80
15099;DHT22;33900;53.640;9.942;2023-05-23T03:54:14;18.50;88.90
15099;DHT22;33900;53.640;9.942;2023-05-23T03:56:41;18.40;88.90
15099;DHT22;33900;53.640;9.942;2023-05-23T03:59:07;18.30;88.90
15099;DHT22;33900;53.640;9.942;2023-05-23T04:01:35;18.40;89.10
15099;DHT22;33900;53.640;9.942;2023-05-23T04:04:01;18.40;89.10
15099;DHT22;33900;53.640;9.942;2023-05-23T04:06:31;18.30;89.10
15099;DHT22;33900;53.640;9.942;2023-05-23T04:08:58;18.30;89.10
15099;DHT22;33900;53.640;9.942;2023-05-23T04:11:24;18.20;89.00
15099;DHT22;33900;53.640;9.942;2023-05-23T04:13:49;18.30;89.10
15099;DHT22;33900;53.640;9.942;2023-05-23T04:16:16;18.30;89.00
15099;DHT22;33900;53.640;9.942;2023-05-23T04:18:42;18.30;89.30
15099;DHT22;33900;53.640;9.942;2023-05-23T04:21:11;18.30;89.30
15099;DHT22;33900;53.640;9.942;2023-05-23T04:23:48;18.30;89.20
15099;DHT22;33900;53.640;9.942;2023-05-23T04:26:13;18.20;89.20
15099;DHT22;33900;53.640;9.942;2023-05-23T04:28:45;18.20;89.30
15099;DHT22;33900;53.640;9.942;2023-05-23T04:31:11;18.20;89.30
15099;DHT22;33900;53.640;9.942;2023-05-23T04:33:37;18.20;89.40
15099;DHT22;33900;53.640;9.942;2023-05-23T04:36:03;18.10;89.30
15099;DHT22;33900;53.640;9.942;2023-05-23T04:38:30;18.10;89.30
15099;DHT22;33900;53.640;9.942;2023-05-23T04:40:56;18.10;89.30
15099;DHT22;33900;53.640;9.942;2023-05-23T04:43:41;18.10;89.30
15099;DHT22;33900;53.640;9.942;2023-05-23T04:46:14;18.10;89.40
15099;DHT22;33900;53.640;9.942;2023-05-23T04:48:42;18.10;89.40
15099;DHT22;33900;53.640;9.942;2023-05-23T04:51:09;18.00;89.30
15099;DHT22;33900;53.640;9.942;2023-05-23T04:53:41;18.00;89.30
15099;DHT22;33900;53.640;9.942;2023-05-23T04:56:09;18.00;90.00
15099;DHT22;33900;53.640;9.942;2023-05-23T04:58:36;18.00;89.20
15099;DHT22;33900;53.640;9.942;2023-05-23T05:01:09;18.00;90.00
15099;DHT22;33900;53.640;9.942;2023-05-23T05:03:35;18.00;89.30
15099;DHT22;33900;53.640;9.942;2023-05-23T05:06:02;18.00;89.30
15099;DHT22;33900;53.640;9.942;2023-05-23T05:08:27;17.90;89.20
15099;DHT22;33900;53.640;9.942;2023-05-23T05:10:53;17.90;89.40
15099;DHT22;33900;53.640;9.942;2023-05-23T05:13:19;17.90;89.40
15099;DHT22;33900;53.640;9.942;2023-05-23T05:15:48;17.90;89.40
15099;DHT22;33900;53.640;9.942;2023-05-23T05:18:14;17.90;89.60
15099;DHT22;33900;53.640;9.942;2023-05-23T05:20:41;17.90;89.80
15099;DHT22;33900;53.640;9.942;2023-05-23T05:23:07;17.90;89.80
15099;DHT22;33900;53.640;9.942;2023-05-23T05:25:34;17.90;89.70
15099;DHT22;33900;53.640;9.942;2023-05-23T05:28:02;17.90;89.70
15099;DHT22;33900;53.640;9.942;2023-05-23T05:30:32;17.90;89.70
15099;DHT22;33900;53.640;9.942;2023-05-23T05:33:01;17.90;89.70
15099;DHT22;33900;53.640;9.942;2023-05-23T05:35:31;17.90;89.80
15099;DHT22;33900;53.640;9.942;2023-05-23T05:37:58;17.90;89.90
15099;DHT22;33900;53.640;9.942;2023-05-23T05:40:23;17.90;90.20
15099;DHT22;33900;53.640;9.942;2023-05-23T05:42:50;17.90;89.90
15099;DHT22;33900;53.640;9.942;2023-05-23T05:45:15;17.90;90.00
15099;DHT22;33900;53.640;9.942;2023-05-23T05:47:43;17.90;89.80
15099;DHT22;33900;53.640;9.942;2023-05-23T05:50:09;17.90;90.00
15099;DHT22;33900;53.640;9.942;2023-05-23T05:52:36;17.90;89.80
15099;DHT22;33900;53.640;9.942;2023-05-23T05:55:06;17.90;89.80
15099;DHT22;33900;53.640;9.942;2023-05-23T05:57:32;17.90;89.80
15099;DHT22;33900;53.640;9.942;2023-05-23T05:59:59;17.90;89.80
15099;DHT22;33900;53.640;9.942;2023-05-23T06:02:26;17.90;89.80
15099;DHT22;33900;53.640;9.942;2023-05-23T06:04:52;17.90;89.90
15099;DHT22;33900;53.640;9.942;2023-05-23T06:07:17;17.90;90.00
15099;DHT22;33900;53.640;9.942;2023-05-23T06:09:44;17.90;89.90
15099;DHT22;33900;53.640;9.942;2023-05-23T06:12:10;17.90;90.00
15099;DHT22;33900;53.640;9.942;2023-05-23T06:14:35;17.90;90.00
15099;DHT22;33900;53.640;9.942;2023-05-23T06:17:02;17.90;90.00
15099;DHT22;33900;53.640;9.942;2023-05-23T06:19:27;17.90;90.00
15099;DHT22;33900;53.640;9.942;2023-05-23T06:21:54;17.90;90.00
15099;DHT22;33900;53.640;9.942;2023-05-23T06:24:21;17.90;90.00
15099;DHT22;33900;53.640;9.942;2023-05-23T06:26:46;17.90;90.00
15099;DHT22;33900;53.640;9.942;2023-05-23T06:29:12;17.90;90.00
15099;DHT22;33900;53.640;9.942;2023-05-23T06:31:38;18.00;90.00
15099;DHT22;33900;53.640;9.942;2023-05-23T06:34:04;18.00;90.00
15099;DHT22;33900;53.640;9.942;2023-05-23T06:36:29;18.00;90.00
15099;DHT22;33900;53.640;9.942;2023-05-23T06:38:56;18.00;90.00
15099;DHT22;33900;53.640;9.942;2023-05-23T06:41:21;18.00;90.00
15099;DHT22;33900;53.640;9.942;2023-05-23T06:43:47;18.00;90.00
15099;DHT22;33900;53.640;9.942;2023-05-23T06:46:21;18.00;90.00
15099;DHT22;33900;53.640;9.942;2023-05-23T06:48:46;18.00;89.90
15099;DHT22;33900;53.640;9.942;2023-05-23T06:51:12;18.00;90.00
15099;DHT22;33900;53.640;9.942;2023-05-23T06:53:38;18.00;90.00
15099;DHT22;33900;53.640;9.942;2023-05-23T06:56:03;18.10;90.00
15099;DHT22;33900;53.640;9.942;2023-05-23T06:58:32;18.10;90.00
15099;DHT22;33900;53.640;9.942;2023-05-23T07:01:01;18.00;90.00
15099;DHT22;33900;53.640;9.942;2023-05-23T07:03:30;18.10;90.00
15099;DHT22;33900;53.640;9.942;2023-05-23T07:06:02;18.10;90.00
15099;DHT22;33900;53.640;9.942;2023-05-23T07:08:27;18.10;90.00
15099;DHT22;33900;53.640;9.942;2023-05-23T07:11:03;18.00;90.00
15099;DHT22;33900;53.640;9.942;2023-05-23T07:13:32;18.00;90.00
15099;DHT22;33900;53.640;9.942;2023-05-23T07:15:58;18.00;90.10
15099;DHT22;33900;53.640;9.942;2023-05-23T07:18:25;18.00;90.10
15099;DHT22;33900;53.640;9.942;2023-05-23T07:20:51;18.00;90.10
15099;DHT22;33900;53.640;9.942;2023-05-23T07:23:18;18.00;90.10
15099;DHT22;33900;53.640;9.942;2023-05-23T07:25:45;18.00;90.00
15099;DHT22;33900;53.640;9.942;2023-05-23T07:28:21;18.10;90.10
15099;DHT22;33900;53.640;9.942;2023-05-23T07:30:47;18.10;90.10
15099;DHT22;33900;53.640;9.942;2023-05-23T07:33:13;18.10;90.00
15099;DHT22;33900;53.640;9.942;2023-05-23T07:35:40;18.10;90.00
15099;DHT22;33900;53.640;9.942;2023-05-23T07:38:06;18.10;90.00
15099;DHT22;33900;53.640;9.942;2023-05-23T07:40:32;18.10;90.00
15099;DHT22;33900;53.640;9.942;2023-05-23T07:42:57;18.20;90.10
15099;DHT22;33900;53.640;9.942;2023-05-23T07:45:25;18.20;90.40
15099;DHT22;33900;53.640;9.942;2023-05-23T07:47:50;18.20;90.10
15099;DHT22;33900;53.640;9.942;2023-05-23T07:50:17;18.20;90.10
15099;DHT22;33900;53.640;9.942;2023-05-23T07:52:43;18.30;90.10
15099;DHT22;33900;53.640;9.942;2023-05-23T07:55:12;18.30;90.10
15099;DHT22;33900;53.640;9.942;2023-05-23T07:57:38;18.30;90.10
15099;DHT22;33900;53.640;9.942;2023-05-23T08:00:04;18.30;90.10
15099;DHT22;33900;53.640;9.942;2023-05-23T08:02:40;18.20;90.10
15099;DHT22;33900;53.640;9.942;2023-05-23T08:05:08;18.20;90.10
15099;DHT22;33900;53.640;9.942;2023-05-23T08:07:35;18.20;90.10
15099;DHT22;33900;53.640;9.942;2023-05-23T08:10:02;18.20;90.20
15099;DHT22;33900;53.640;9.942;2023-05-23T08:12:28;18.20;90.10
15099;DHT22;33900;53.640;9.942;2023-05-23T08:15:05;18.20;90.10
15099;DHT22;33900;53.640;9.942;2023-05-23T08:17:37;18.20;90.10
15099;DHT22;33900;53.640;9.942;2023-05-23T08:20:03;18.20;90.10
15099;DHT22;33900;53.640;9.942;2023-05-23T08:22:30;18.20;90.10
15099;DHT22;33900;53.640;9.942;2023-05-23T08:24:56;18.20;90.10
15099;DHT22;33900;53.640;9.942;2023-05-23T08:27:24;18.20;90.10
15099;DHT22;33900;53.640;9.942;2023-05-23T08:29:54;18.20;90.10
15099;DHT22;33900;53.640;9.942;2023-05-23T08:32:20;18.20;90.00
15099;DHT22;33900;53.640;9.942;2023-05-23T08:34:47;18.20;90.00
15099;DHT22;33900;53.640;9.942;2023-05-23T08:37:13;18.10;90.00
15099;DHT22;33900;53.640;9.942;2023-05-23T08:39:40;18.10;90.00
15099;DHT22;33900;53.640;9.942;2023-05-23T08:42:24;18.10;90.00
15099;DHT22;33900;53.640;9.942;2023-05-23T08:44:50;18.10;90.00
15099;DHT22;33900;53.640;9.942;2023-05-23T08:47:16;18.10;90.00
15099;DHT22;33900;53.640;9.942;2023-05-23T08:49:50;18.00;89.90
15099;DHT22;33900;53.640;9.942;2023-05-23T08:52:17;18.00;90.00
15099;DHT22;33900;53.640;9.942;2023-05-23T08:54:48;17.90;90.00
15099;DHT22;33900;53.640;9.942;2023-05-23T08:57:14;17.90;90.00
15099;DHT22;33900;53.640;9.942;2023-05-23T08:59:46;17.90;90.00
15099;DHT22;33900;53.640;9.942;2023-05-23T09:02:13;17.90;90.00
15099;DHT22;33900;53.640;9.942;2023-05-23T09:04:39;17.90;90.00
15099;DHT22;33900;53.640;9.942;2023-05-23T09:07:19;17.90;90.00
15099;DHT22;33900;53.640;9.942;2023-05-23T09:09:45;17.80;90.10
15099;DHT22;33900;53.640;9.942;2023-05-23T09:12:13;17.80;90.10
15099;DHT22;33900;53.640;9.942;2023-05-23T09:14:41;17.80;90.10
15099;DHT22;33900;53.640;9.942;2023-05-23T09:17:08;17.80;90.10
15099;DHT22;33900;53.640;9.942;2023-05-23T09:19:33;17.80;90.10
15099;DHT22;33900;53.640;9.942;2023-05-23T09:22:16;17.70;90.10
15099;DHT22;33900;53.640;9.942;2023-05-23T09:24:56;17.70;90.10
15099;DHT22;33900;53.640;9.942;2023-05-23T09:27:22;17.70;90.10
15099;DHT22;33900;53.640;9.942;2023-05-23T09:29:48;17.70;90.20
15099;DHT22;33900;53.640;9.942;2023-05-23T09:32:17;17.70;90.20
15099;DHT22;33900;53.640;9.942;2023-05-23T09:37:15;17.70;90.10
15099;DHT22;33900;53.640;9.942;2023-05-23T09:39:46;17.60;90.10
15099;DHT22;33900;53.640;9.942;2023-05-23T09:42:20;17.60;90.10
15099;DHT22;33900;53.640;9.942;2023-05-23T09:44:47;17.60;90.10
15099;DHT22;33900;53.640;9.942;2023-05-23T09:47:14;17.60;90.10
15099;DHT22;33900;53.640;9.942;2023-05-23T09:49:41;17.50;90.10
15099;DHT22;33900;53.640;9.942;2023-05-23T09:52:07;17.50;90.10
15099;DHT22;33900;53.640;9.942;2023-05-23T09:54:33;17.50;90.10
15099;DHT22;33900;53.640;9.942;2023-05-23T09:56:59;17.50;90.10
15099;DHT22;33900;53.640;9.942;2023-05-23T09:59:27;17.50;90.10
15099;DHT22;33900;53.640;9.942;2023-05-23T10:01:56;17.40;90.10
15099;DHT22;33900;53.640;9.942;2023-05-23T10:04:21;17.40;90.10
15099;DHT22;33900;53.640;9.942;2023-05-23T10:06:50;17.40;90.10
15099;DHT22;33900;53.640;9.942;2023-05-23T10:09:18;17.40;90.10
15099;DHT22;33900;53.640;9.942;2023-05-23T10:14:37;17.40;90.10
15099;DHT22;33900;53.640;9.942;2023-05-23T10:17:10;17.30;90.00
15099;DHT22;33900;53.640;9.942;2023-05-23T10:22:09;17.30;90.10
15099;DHT22;33900;53.640;9.942;2023-05-23T10:24:35;17.30;90.00
15099;DHT22;33900;53.640;9.942;2023-05-23T10:27:01;17.30;90.00
15099;DHT22;33900;53.640;9.942;2023-05-23T10:29:27;17.30;90.00
15099;DHT22;33900;53.640;9.942;2023-05-23T10:31:53;17.30;90.00
15099;DHT22;33900;53.640;9.942;2023-05-23T10:34:33;17.30;90.00
15099;DHT22;33900;53.640;9.942;2023-05-23T10:37:03;17.30;90.00
15099;DHT22;33900;53.640;9.942;2023-05-23T10:42:27;17.30;90.00
15099;DHT22;33900;53.640;9.942;2023-05-23T10:45:29;17.30;90.00
15099;DHT22;33900;53.640;9.942;2023-05-23T10:47:51;17.30;89.90
15099;DHT22;33900;53.640;9.942;2023-05-23T10:50:30;17.30;89.90
15099;DHT22;33900;53.640;9.942;2023-05-23T10:52:57;17.30;89.90
15099;DHT22;33900;53.640;9.942;2023-05-23T10:55:23;17.30;89.80
15099;DHT22;33900;53.640;9.942;2023-05-23T10:58:08;17.30;90.20
15099;DHT22;33900;53.640;9.942;2023-05-23T11:00:34;17.30;89.70
15099;DHT22;33900;53.640;9.942;2023-05-23T11:02:59;17.30;89.50
15099;DHT22;33900;53.640;9.942;2023-05-23T11:05:26;17.30;89.40
15099;DHT22;33900;53.640;9.942;2023-05-23T11:08:06;17.20;89.40
15099;DHT22;33900;53.640;9.942;2023-05-23T11:10:32;17.30;89.50
15099;DHT22;33900;53.640;9.942;2023-05-23T11:13:15;17.40;89.60
15099;DHT22;33900;53.640;9.942;2023-05-23T11:15:41;17.40;89.40
15099;DHT22;33900;53.640;9.942;2023-05-23T11:18:07;17.50;89.40
15099;DHT22;33900;53.640;9.942;2023-05-23T11:20:32;17.50;89.50
15099;DHT22;33900;53.640;9.942;2023-05-23T11:23:01;17.60;89.40
15099;DHT22;33900;53.640;9.942;2023-05-23T11:25:43;17.70;89.40
15099;DHT22;33900;53.640;9.942;2023-05-23T11:28:09;17.80;89.20
15099;DHT22;33900;53.640;9.942;2023-05-23T11:30:36;17.90;89.10
15099;DHT22;33900;53.640;9.942;2023-05-23T11:33:05;18.00;89.00
15099;DHT22;33900;53.640;9.942;2023-05-23T11:35:32;18.10;88.90
15099;DHT22;33900;53.640;9.942;2023-05-23T11:37:59;18.10;88.80
15099;DHT22;33900;53.640;9.942;2023-05-23T11:40:28;18.20;88.70
15099;DHT22;33900;53.640;9.942;2023-05-23T11:42:55;18.20;88.70
15099;DHT22;33900;53.640;9.942;2023-05-23T11:45:21;18.30;88.70
15099;DHT22;33900;53.640;9.942;2023-05-23T11:47:47;18.30;88.60
15099;DHT22;33900;53.640;9.942;2023-05-23T11:50:14;18.40;88.20
15099;DHT22;33900;53.640;9.942;2023-05-23T11:52:40;18.40;87.90
15099;DHT22;33900;53.640;9.942;2023-05-23T11:55:06;18.40;87.40
15099;DHT22;33900;53.640;9.942;2023-05-23T11:57:31;18.50;87.40
15099;DHT22;33900;53.640;9.942;2023-05-23T11:59:57;18.50;87.50
15099;DHT22;33900;53.640;9.942;2023-05-23T12:02:23;18.50;87.40
15099;DHT22;33900;53.640;9.942;2023-05-23T12:04:52;18.60;87.20
15099;DHT22;33900;53.640;9.942;2023-05-23T12:07:18;18.60;86.80
15099;DHT22;33900;53.640;9.942;2023-05-23T12:09:43;18.60;86.30
15099;DHT22;33900;53.640;9.942;2023-05-23T12:12:13;18.60;85.90
15099;DHT22;33900;53.640;9.942;2023-05-23T12:14:40;18.70;86.10
15099;DHT22;33900;53.640;9.942;2023-05-23T12:17:11;18.70;86.10
15099;DHT22;33900;53.640;9.942;2023-05-23T12:19:38;18.80;85.90
15099;DHT22;33900;53.640;9.942;2023-05-23T12:22:04;18.80;85.60
15099;DHT22;33900;53.640;9.942;2023-05-23T12:24:31;18.80;85.10
15099;DHT22;33900;53.640;9.942;2023-05-23T12:26:57;18.80;84.80
15099;DHT22;33900;53.640;9.942;2023-05-23T12:29:30;18.80;85.00
15099;DHT22;33900;53.640;9.942;2023-05-23T12:32:00;19.00;85.00
15099;DHT22;33900;53.640;9.942;2023-05-23T12:34:25;19.00;84.70
15099;DHT22;33900;53.640;9.942;2023-05-23T12:36:54;19.10;84.10
15099;DHT22;33900;53.640;9.942;2023-05-23T12:39:24;19.20;84.00
15099;DHT22;33900;53.640;9.942;2023-05-23T12:41:53;19.40;83.90
15099;DHT22;33900;53.640;9.942;2023-05-23T12:44:22;19.40;83.60
15099;DHT22;33900;53.640;9.942;2023-05-23T12:46:48;19.50;82.70
15099;DHT22;33900;53.640;9.942;2023-05-23T12:49:14;19.60;82.30
15099;DHT22;33900;53.640;9.942;2023-05-23T12:51:39;19.60;82.10
15099;DHT22;33900;53.640;9.942;2023-05-23T12:54:05;19.60;81.60
15099;DHT22;33900;53.640;9.942;2023-05-23T12:56:32;19.70;81.90
15099;DHT22;33900;53.640;9.942;2023-05-23T12:58:58;19.70;81.40
15099;DHT22;33900;53.640;9.942;2023-05-23T13:01:26;19.80;81.20
15099;DHT22;33900;53.640;9.942;2023-05-23T13:03:52;19.80;80.60
15099;DHT22;33900;53.640;9.942;2023-05-23T13:06:17;19.70;80.50
15099;DHT22;33900;53.640;9.942;2023-05-23T13:08:43;19.70;80.30
15099;DHT22;33900;53.640;9.942;2023-05-23T13:11:08;19.60;80.10
15099;DHT22;33900;53.640;9.942;2023-05-23T13:13:34;19.60;80.00
15099;DHT22;33900;53.640;9.942;2023-05-23T13:16:00;19.50;79.90
15099;DHT22;33900;53.640;9.942;2023-05-23T13:18:25;19.50;80.00
15099;DHT22;33900;53.640;9.942;2023-05-23T13:20:51;19.40;79.90
15099;DHT22;33900;53.640;9.942;2023-05-23T13:23:17;19.40;79.70
15099;DHT22;33900;53.640;9.942;2023-05-23T13:25:43;19.30;79.10
15099;DHT22;33900;53.640;9.942;2023-05-23T13:28:08;19.20;78.60
15099;DHT22;33900;53.640;9.942;2023-05-23T13:30:34;19.20;78.80
15099;DHT22;33900;53.640;9.942;2023-05-23T13:33:00;19.10;78.50
15099;DHT22;33900;53.640;9.942;2023-05-23T13:35:25;19.10;78.60
15099;DHT22;33900;53.640;9.942;2023-05-23T13:37:51;19.10;78.70
15099;DHT22;33900;53.640;9.942;2023-05-23T13:40:17;19.10;78.80
15099;DHT22;33900;53.640;9.942;2023-05-23T13:42:44;19.10;78.80
15099;DHT22;33900;53.640;9.942;2023-05-23T13:45:10;19.10;78.90
15099;DHT22;33900;53.640;9.942;2023-05-23T13:47:36;19.10;79.00
15099;DHT22;33900;53.640;9.942;2023-05-23T13:50:02;19.10;78.50
15099;DHT22;33900;53.640;9.942;2023-05-23T13:52:28;19.10;77.40
15099;DHT22;33900;53.640;9.942;2023-05-23T13:54:53;19.10;77.50
15099;DHT22;33900;53.640;9.942;2023-05-23T13:57:19;19.10;77.40
15099;DHT22;33900;53.640;9.942;2023-05-23T13:59:44;19.00;76.90
15099;DHT22;33900;53.640;9.942;2023-05-23T14:02:10;19.00;77.10
15099;DHT22;33900;53.640;9.942;2023-05-23T14:04:36;18.90;76.70
15099;DHT22;33900;53.640;9.942;2023-05-23T14:07:02;19.00;76.60
15099;DHT22;33900;53.640;9.942;2023-05-23T14:09:28;18.90;76.00
15099;DHT22;33900;53.640;9.942;2023-05-23T14:11:53;18.90;75.90
15099;DHT22;33900;53.640;9.942;2023-05-23T14:14:19;18.80;76.20
15099;DHT22;33900;53.640;9.942;2023-05-23T14:16:45;18.80;76.40
15099;DHT22;33900;53.640;9.942;2023-05-23T14:19:11;18.80;76.60
15099;DHT22;33900;53.640;9.942;2023-05-23T14:21:36;18.80;76.80
15099;DHT22;33900;53.640;9.942;2023-05-23T14:24:03;18.80;76.80
15099;DHT22;33900;53.640;9.942;2023-05-23T14:26:28;18.70;76.80
15099;DHT22;33900;53.640;9.942;2023-05-23T14:28:54;18.70;76.80
15099;DHT22;33900;53.640;9.942;2023-05-23T14:31:20;18.60;76.70
15099;DHT22;33900;53.640;9.942;2023-05-23T14:33:46;18.70;76.60
15099;DHT22;33900;53.640;9.942;2023-05-23T14:36:11;18.60;76.60
15099;DHT22;33900;53.640;9.942;2023-05-23T14:38:37;18.60;76.70
15099;DHT22;33900;53.640;9.942;2023-05-23T14:41:04;18.60;76.50
15099;DHT22;33900;53.640;9.942;2023-05-23T14:43:29;18.60;76.30
15099;DHT22;33900;53.640;9.942;2023-05-23T14:45:55;18.60;76.10
15099;DHT22;33900;53.640;9.942;2023-05-23T14:48:21;18.50;75.70
15099;DHT22;33900;53.640;9.942;2023-05-23T14:50:46;18.50;75.80
15099;DHT22;33900;53.640;9.942;2023-05-23T14:53:12;18.50;76.10
15099;DHT22;33900;53.640;9.942;2023-05-23T14:55:38;18.60;76.40
15099;DHT22;33900;53.640;9.942;2023-05-23T14:58:03;18.60;76.40
15099;DHT22;33900;53.640;9.942;2023-05-23T15:00:30;18.70;76.30
15099;DHT22;33900;53.640;9.942;2023-05-23T15:02:57;18.70;76.00
15099;DHT22;33900;53.640;9.942;2023-05-23T15:05:23;18.60;75.90
15099;DHT22;33900;53.640;9.942;2023-05-23T15:07:49;18.60;75.80
15099;DHT22;33900;53.640;9.942;2023-05-23T15:10:15;18.60;75.40
15099;DHT22;33900;53.640;9.942;2023-05-23T15:12:42;18.60;75.50
15099;DHT22;33900;53.640;9.942;2023-05-23T15:15:07;18.60;75.60
15099;DHT22;33900;53.640;9.942;2023-05-23T15:17:33;18.50;75.20
15099;DHT22;33900;53.640;9.942;2023-05-23T15:19:59;18.50;75.30
15099;DHT22;33900;53.640;9.942;2023-05-23T15:22:24;18.50;75.20
15099;DHT22;33900;53.640;9.942;2023-05-23T15:24:50;18.50;75.30
15099;DHT22;33900;53.640;9.942;2023-05-23T15:27:16;18.50;75.30
15099;DHT22;33900;53.640;9.942;2023-05-23T15:29:41;18.50;75.40
15099;DHT22;33900;53.640;9.942;2023-05-23T15:32:07;18.50;75.50
15099;DHT22;33900;53.640;9.942;2023-05-23T15:34:33;18.50;75.60
15099;DHT22;33900;53.640;9.942;2023-05-23T15:36:59;18.50;75.20
15099;DHT22;33900;53.640;9.942;2023-05-23T15:39:25;18.50;75.00
15099;DHT22;33900;53.640;9.942;2023-05-23T15:41:51;18.40;74.90
15099;DHT22;33900;53.640;9.942;2023-05-23T15:44:17;18.40;75.00
15099;DHT22;33900;53.640;9.942;2023-05-23T15:46:45;18.30;74.90